createdAt,value
2023-11-08T00:03:47.270Z,98428.53
2023-11-08T00:08:55.453Z,98437.53
2023-11-08T00:14:00.889Z,98436.31
2023-11-08T00:19:09.104Z,98431.28
2023-11-08T00:24:17.542Z,98431.72
2023-11-08T00:29:23.508Z,98435.59
2023-11-08T00:34:30.076Z,98430.03
2023-11-08T00:39:38.236Z,98427.66
2023-11-08T00:44:43.862Z,98444.38
2023-11-08T00:49:49.289Z,98446.91
2023-11-08T00:54:57.319Z,98439.44
2023-11-08T01:00:02.675Z,98446.41
2023-11-08T01:05:09.599Z,98441.81
2023-11-08T01:10:18.763Z,98452.34
2023-11-08T01:15:25.537Z,98456.94
2023-11-08T01:20:31.107Z,98453.00
2023-11-08T01:25:39.336Z,98443.28
2023-11-08T01:30:44.808Z,98449.28
2023-11-08T01:35:50.383Z,98448.97
2023-11-08T01:40:58.503Z,98442.13
2023-11-08T01:46:11.161Z,98436.22
2023-11-08T01:51:17.380Z,98443.09
2023-11-08T01:56:27.097Z,98425.41
2023-11-08T02:01:32.548Z,98436.03
2023-11-08T02:06:38.330Z,98431.78
2023-11-08T02:11:47.105Z,98424.44
2023-11-08T02:16:52.516Z,98422.38
2023-11-08T02:21:58.070Z,98426.88
2023-11-08T02:27:06.901Z,98432.97
2023-11-08T02:32:12.522Z,98419.91
2023-11-08T02:37:17.910Z,98439.16
2023-11-08T02:42:26.546Z,98443.59
2023-11-08T02:47:32.044Z,98438.47
2023-11-08T02:52:38.583Z,98427.34
2023-11-08T02:57:47.054Z,98434.44
2023-11-08T03:02:52.692Z,98437.88
2023-11-08T03:07:59.240Z,98428.31
2023-11-08T03:13:07.491Z,98436.75
2023-11-08T03:18:13.081Z,98439.34
2023-11-08T03:23:18.511Z,98442.78
2023-11-08T03:28:26.698Z,98445.75
2023-11-08T03:33:32.344Z,98432.88
2023-11-08T03:38:37.810Z,98447.50
2023-11-08T03:43:45.946Z,98458.81
2023-11-08T03:48:59.814Z,98461.66
2023-11-08T03:54:10.019Z,98469.78
2023-11-08T03:59:19.488Z,98462.81
2023-11-08T04:04:25.467Z,98471.97
2023-11-08T04:09:31.061Z,98477.50
2023-11-08T04:14:40.724Z,98485.03
2023-11-08T04:19:47.496Z,98481.69
2023-11-08T04:24:54.495Z,98487.00
2023-11-08T04:30:02.926Z,98472.28
2023-11-08T04:35:09.803Z,98466.28
2023-11-08T04:40:17.411Z,98466.25
2023-11-08T04:45:25.927Z,98464.41
2023-11-08T04:50:32.399Z,98479.34
2023-11-08T04:55:37.920Z,98473.63
2023-11-08T05:00:46.680Z,98472.16
2023-11-08T05:05:52.460Z,98464.88
2023-11-08T05:10:58.058Z,98476.69
2023-11-08T05:16:06.202Z,98472.94
2023-11-08T05:21:15.816Z,98472.84
2023-11-08T05:26:21.401Z,98475.19
2023-11-08T05:31:35.157Z,98478.13
2023-11-08T05:36:41.135Z,98478.63
2023-11-08T05:41:46.530Z,98470.88
2023-11-08T05:46:54.515Z,98468.88
2023-11-08T05:52:00.076Z,98490.41
2023-11-08T05:57:06.393Z,98483.38
2023-11-08T06:02:16.914Z,98498.59
2023-11-08T06:07:23.133Z,98499.47
2023-11-08T06:12:48.778Z,98508.53
2023-11-08T06:18:11.942Z,98501.44
2023-11-08T06:23:24.913Z,98514.50
2023-11-08T06:28:34.552Z,98509.50
2023-11-08T06:34:04.933Z,98506.88
2023-11-08T06:39:15.900Z,98509.81
2023-11-08T06:44:30.133Z,98519.34
2023-11-08T06:50:33.884Z,98530.84
2023-11-08T06:56:04.709Z,98524.75
2023-11-08T07:01:15.801Z,98522.97
2023-11-08T07:07:44.851Z,98526.81
2023-11-08T07:12:48.280Z,98528.75
2023-11-08T07:18:15.676Z,98526.91
2023-11-08T07:23:30.439Z,98540.25
2023-11-08T07:28:54.807Z,98555.63
2023-11-08T07:34:06.161Z,98544.81
2023-11-08T07:39:27.106Z,98545.97
2023-11-08T07:45:02.063Z,98554.06
2023-11-08T07:50:56.434Z,98563.88
2023-11-08T07:56:22.676Z,98548.53
2023-11-08T08:01:37.489Z,98554.94
2023-11-08T08:06:52.525Z,98568.41
2023-11-08T08:12:01.106Z,98568.47
2023-11-08T08:17:19.027Z,98557.19
2023-11-08T08:23:15.653Z,98570.84
2023-11-08T08:28:30.020Z,98579.50
2023-11-08T08:34:53.447Z,98583.03
2023-11-08T08:40:22.662Z,98586.97
2023-11-08T08:45:48.046Z,98605.25
2023-11-08T08:52:02.400Z,98592.38
2023-11-08T08:57:04.099Z,98602.00
2023-11-08T09:02:20.635Z,98606.75
2023-11-08T09:07:27.328Z,98596.69
2023-11-08T09:12:59.874Z,98604.56
2023-11-08T09:18:15.126Z,98611.44
2023-11-08T09:23:31.367Z,98604.81
2023-11-08T09:28:48.833Z,98607.22
2023-11-08T09:33:58.643Z,98607.81
2023-11-08T09:39:05.520Z,98616.16
2023-11-08T09:44:14.911Z,98621.47
2023-11-08T09:49:24.516Z,98622.94
2023-11-08T09:54:32.582Z,98617.63
2023-11-08T10:00:09.757Z,98622.19
2023-11-08T10:05:30.031Z,98620.91
2023-11-08T10:10:36.282Z,98606.31
2023-11-08T10:16:03.469Z,98619.00
2023-11-08T10:21:27.400Z,98604.22
2023-11-08T10:26:40.465Z,98614.38
2023-11-08T10:31:49.455Z,98604.84
2023-11-08T10:37:10.232Z,98614.47
2023-11-08T10:42:15.879Z,98620.97
2023-11-08T10:47:25.083Z,98590.44
2023-11-08T10:52:47.765Z,98602.81
2023-11-08T10:58:13.837Z,98606.50
2023-11-08T11:03:32.610Z,98589.72
2023-11-08T11:08:45.969Z,98600.09
2023-11-08T11:14:24.417Z,98579.84
2023-11-08T11:25:52.254Z,98597.75
2023-11-08T11:31:27.502Z,98589.84
2023-11-08T11:37:07.680Z,98610.88
2023-11-08T11:42:24.043Z,98607.72
2023-11-08T11:47:39.083Z,98602.59
2023-11-08T11:53:00.596Z,98592.59
2023-11-08T11:58:14.042Z,98592.84
2023-11-08T12:03:21.672Z,98596.22
2023-11-08T12:08:28.311Z,98607.09
2023-11-08T12:13:51.028Z,98598.16
2023-11-08T12:18:57.171Z,98604.75
2023-11-08T12:24:06.366Z,98608.22
2023-11-08T12:29:15.269Z,98595.75
2023-11-08T12:34:23.086Z,98601.66
2023-11-08T12:39:30.091Z,98597.78
2023-11-08T12:44:52.380Z,98601.97
2023-11-08T12:49:59.025Z,98601.31
2023-11-08T12:55:04.738Z,98601.03
2023-11-08T13:00:15.757Z,98596.44
2023-11-08T13:05:21.852Z,98604.53
2023-11-08T13:10:27.693Z,98599.78
2023-11-08T13:15:35.925Z,98584.75
2023-11-08T13:20:42.191Z,98586.47
2023-11-08T13:25:48.406Z,98595.91
2023-11-08T13:30:56.462Z,98599.56
2023-11-08T13:36:02.072Z,98592.28
2023-11-08T13:41:08.215Z,98588.44
2023-11-08T13:46:16.997Z,98597.81
2023-11-08T13:51:23.165Z,98597.59
2023-11-08T13:56:29.328Z,98602.84
2023-11-08T14:01:38.416Z,98600.28
2023-11-08T14:06:45.062Z,98611.00
2023-11-08T14:11:53.730Z,98591.75
2023-11-08T14:17:01.737Z,98592.13
2023-11-08T14:22:07.686Z,98604.47
2023-11-08T14:27:14.298Z,98604.22
2023-11-08T14:32:26.804Z,98608.28
2023-11-08T14:37:34.091Z,98611.47
2023-11-08T14:42:40.433Z,98618.25
2023-11-08T14:47:48.988Z,98600.97
2023-11-08T14:52:55.529Z,98621.94
2023-11-08T14:58:06.456Z,98625.25
2023-11-08T15:03:14.784Z,98622.97
2023-11-08T15:09:49.622Z,98608.84
2023-11-08T15:13:51.045Z,98602.50
2023-11-08T15:19:00.452Z,98618.50
2023-11-08T15:24:06.221Z,98616.84
2023-11-08T15:29:12.548Z,98616.34
2023-11-08T15:34:25.728Z,98620.50
2023-11-08T15:39:33.563Z,98624.31
2023-11-08T15:44:42.171Z,98629.53
2023-11-08T15:49:51.304Z,98620.69
2023-11-08T15:55:12.856Z,98636.94
2023-11-08T16:00:21.575Z,98624.13
2023-11-08T16:05:31.732Z,98637.03
2023-11-08T16:10:40.147Z,98631.28
2023-11-08T16:15:46.873Z,98631.28
2023-11-08T16:20:57.399Z,98606.84
2023-11-08T16:26:03.969Z,98607.88
2023-11-08T16:32:30.807Z,98616.97
2023-11-08T16:36:52.685Z,98614.41
2023-11-08T16:42:02.441Z,98617.06
2023-11-08T16:47:15.820Z,98617.88
2023-11-08T16:52:25.059Z,98614.91
2023-11-08T16:57:31.346Z,98618.13
2023-11-08T17:02:37.623Z,98640.97
2023-11-08T17:07:46.720Z,98630.53
2023-11-08T17:12:52.747Z,98630.84
2023-11-08T17:17:58.675Z,98635.84
2023-11-08T17:23:12.406Z,98637.53
2023-11-08T17:28:18.240Z,98624.56
2023-11-08T17:33:23.900Z,98630.94
2023-11-08T17:38:32.582Z,98627.50
2023-11-08T17:43:39.749Z,98633.69
2023-11-08T17:48:46.503Z,98629.75
2023-11-08T17:53:56.264Z,98622.34
2023-11-08T17:59:10.942Z,98627.09
2023-11-08T18:04:17.606Z,98625.91
2023-11-08T18:09:27.083Z,98610.44
2023-11-08T18:14:33.770Z,98632.81
2023-11-08T18:19:38.983Z,98604.75
2023-11-08T18:24:46.800Z,98608.38
2023-11-08T18:29:52.381Z,98625.03
2023-11-08T18:35:00.227Z,98622.19
2023-11-08T18:40:10.827Z,98610.84
2023-11-08T18:45:20.098Z,98615.38
2023-11-08T18:50:33.125Z,98619.63
2023-11-08T18:55:41.066Z,98606.25
2023-11-08T19:00:48.790Z,98613.81
2023-11-08T19:05:54.158Z,98613.69
2023-11-08T19:11:02.299Z,98620.19
2023-11-08T19:16:10.224Z,98625.19
2023-11-08T19:21:19.538Z,98626.78
2023-11-08T19:26:27.403Z,98616.75
2023-11-08T19:31:32.887Z,98603.78
2023-11-08T19:36:38.483Z,98618.31
2023-11-08T19:41:47.254Z,98612.28
2023-11-08T19:46:53.019Z,98608.94
2023-11-08T19:51:58.645Z,98602.53
2023-11-08T19:57:07.463Z,98608.84
2023-11-08T20:02:13.761Z,98602.31
2023-11-08T20:07:19.799Z,98614.88
2023-11-08T20:12:28.018Z,98590.97
2023-11-08T20:17:35.278Z,98589.88
2023-11-08T20:22:41.456Z,98594.13
2023-11-08T20:27:49.565Z,98588.31
2023-11-08T20:32:54.849Z,98590.69
2023-11-08T20:38:00.481Z,98573.06
2023-11-08T20:43:09.566Z,98578.97
2023-11-08T20:48:15.752Z,98559.69
2023-11-08T20:53:25.211Z,98562.63
2023-11-08T20:58:33.720Z,98556.69
2023-11-08T21:03:39.317Z,98561.78
2023-11-08T21:08:44.635Z,98553.03
2023-11-08T21:13:52.421Z,98545.56
2023-11-08T21:18:59.745Z,98539.31
2023-11-08T21:24:05.059Z,98527.78
2023-11-08T21:29:13.228Z,98521.03
2023-11-08T21:34:18.949Z,98521.50
2023-11-08T21:39:24.107Z,98510.66
2023-11-08T21:44:31.871Z,98519.63
2023-11-08T21:49:37.310Z,98516.16
2023-11-08T21:54:43.127Z,98513.91
2023-11-08T21:59:51.010Z,98498.09
2023-11-08T22:04:56.580Z,98494.34
2023-11-08T22:10:01.874Z,98491.03
2023-11-08T22:15:10.957Z,98488.50
2023-11-08T22:20:17.175Z,98486.59
2023-11-08T22:25:28.250Z,98476.63
2023-11-08T22:30:37.595Z,98459.47
2023-11-08T22:35:43.505Z,98464.75
2023-11-08T22:40:48.763Z,98471.78
2023-11-08T22:45:56.738Z,98454.41
2023-11-08T22:51:02.011Z,98441.34
2023-11-08T22:56:07.704Z,98442.84
2023-11-08T23:01:16.172Z,98435.41
2023-11-08T23:06:21.518Z,98429.63
2023-11-08T23:11:27.222Z,98425.47
2023-11-08T23:16:35.070Z,98419.28
2023-11-08T23:21:40.227Z,98419.28
2023-11-08T23:26:45.305Z,98399.97
2023-11-08T23:31:52.994Z,98400.44
2023-11-08T23:36:58.172Z,98398.34
2023-11-08T23:42:03.244Z,98396.78
2023-11-08T23:47:11.056Z,98386.25
2023-11-08T23:52:16.222Z,98383.50
2023-11-08T23:57:21.681Z,98375.63
